Grifon 5 — UGMI — position and weather

sailwx.info

Track history (hours):
 
Tides and Currents Weather Stations Pressure Air Temp Water Temp Dewpoint Dewpoint Depression Visibility Wind Speed Wind Dir Waves Ship Positions

Grifon 5

Last reported at 2016-Aug-26 00:31 UTC. Time now 2016-Aug-26 01:30 UTC.
Position N 59°57' E 030°16'.

Length 25 m.

MMSI: 273311070.

Date/timePositionNaut miles runAvg speedWind from/ knotsBaromVisibWave heightAir tempDewpointWater temp
2016-Aug-26 00:31N 59°57' E 030°16'0 0.0
2016-Aug-25 23:13N 59°57' E 030°16'0 0.0
2016-Aug-25 22:33N 59°57' E 030°16'0 0.0
2016-Aug-25 20:09N 59°57' E 030°16'0 0.0
2016-Aug-25 19:33N 59°57' E 030°16'0 0.0
2016-Aug-25 18:33N 59°57' E 030°16'0 0.0
2016-Aug-25 04:33N 59°57' E 030°16'0 0.0
2016-Aug-25 03:33N 59°57' E 030°16'0 0.0
2016-Aug-25 02:33N 59°57' E 030°16'0 0.0
2016-Aug-25 01:32N 59°57' E 030°16'0 0.0
2016-Aug-25 00:34N 59°57' E 030°16'0 0.0
2016-Aug-24 23:34N 59°57' E 030°16'0 0.0
2016-Aug-24 22:33N 59°57' E 030°16'0 0.0
2016-Aug-24 21:33N 59°57' E 030°16'0 0.0
2016-Aug-24 20:33N 59°57' E 030°16'0 0.0
2016-Aug-24 19:34N 59°57' E 030°16'  
2016-Aug-22 10:24N 59°57' E 030°16'0 0.0
2016-Aug-22 09:33N 59°57' E 030°16'2 2.3
2016-Aug-22 08:34N 59°58' E 030°12'5 5.3
2016-Aug-22 07:33N 59°55' E 030°04'5 5.3
2016-Aug-22 06:34N 59°53' E 030°13'0 0.4
2016-Aug-22 05:33N 59°53' E 030°14'1 1.2
2016-Aug-22 04:32N 59°53' E 030°12'1 1.2
2016-Aug-22 03:33N 59°53' E 030°14'0 0.0
2016-Aug-22 02:29N 59°53' E 030°14'0 0.0
2016-Aug-22 01:33N 59°53' E 030°14'0 0.0
2016-Aug-22 00:33N 59°53' E 030°14'0 0.0
2016-Aug-21 23:33N 59°53' E 030°14'0 0.0
2016-Aug-21 22:34N 59°53' E 030°14'0 0.0
2016-Aug-21 21:33N 59°53' E 030°14'0 0.0
2016-Aug-21 20:33N 59°53' E 030°14'0 0.0
2016-Aug-21 19:33N 59°53' E 030°14'0 0.0
2016-Aug-21 18:31N 59°53' E 030°14'0 0.0
2016-Aug-21 17:32N 59°53' E 030°14'0 0.0
2016-Aug-21 16:32N 59°53' E 030°14'0 0.0
2016-Aug-21 15:33N 59°53' E 030°14'0 0.0
2016-Aug-21 14:33N 59°53' E 030°14'0 0.0
2016-Aug-21 13:33N 59°53' E 030°14'0 0.0
2016-Aug-21 12:32N 59°53' E 030°14'0 0.0
2016-Aug-21 11:33N 59°53' E 030°14'0 0.0
2016-Aug-21 10:33N 59°53' E 030°14'2 1.6
2016-Aug-21 09:32N 59°53' E 030°11'0 0.2
2016-Aug-21 08:33N 59°53' E 030°11'2 1.5
2016-Aug-21 07:32N 59°53' E 030°14'0 0.0
2016-Aug-21 06:32N 59°53' E 030°14'0 0.0
2016-Aug-21 05:33N 59°53' E 030°14'0 0.0
2016-Aug-21 04:33N 59°53' E 030°14'2 1.7
2016-Aug-21 03:34N 59°53' E 030°11'2 1.7
2016-Aug-21 02:32N 59°53' E 030°14'0 0.0
2016-Aug-21 01:33N 59°53' E 030°14'0 0.0
2016-Aug-21 00:33N 59°53' E 030°14'0 0.0
2016-Aug-20 23:33N 59°53' E 030°14'0 0.0
2016-Aug-20 22:33N 59°53' E 030°14'0 0.0
2016-Aug-20 21:31N 59°53' E 030°14'0 0.0
2016-Aug-20 20:33N 59°53' E 030°14'0 0.0
2016-Aug-20 19:31N 59°53' E 030°14'0 0.0
2016-Aug-20 18:30N 59°53' E 030°14'0 0.0
2016-Aug-20 17:33N 59°53' E 030°14'0 0.0
2016-Aug-20 16:31N 59°53' E 030°14'0 0.0
2016-Aug-20 15:32N 59°53' E 030°14'0 0.1
2016-Aug-20 14:33N 59°53' E 030°14'0 0.1
2016-Aug-20 13:32N 59°53' E 030°14'0 0.0
2016-Aug-20 12:33N 59°53' E 030°14'0 0.0
2016-Aug-20 11:33N 59°53' E 030°14'0 0.0
2016-Aug-20 10:31N 59°53' E 030°14'0 0.0
2016-Aug-20 09:33N 59°53' E 030°14'1 1.0
2016-Aug-20 08:33N 59°52' E 030°12'1 1.0
2016-Aug-20 07:33N 59°53' E 030°14'0 0.0
2016-Aug-20 06:33N 59°53' E 030°14'0 0.0
2016-Aug-20 05:33N 59°53' E 030°14'0 0.0
2016-Aug-20 04:32N 59°53' E 030°14'2 1.7
2016-Aug-20 03:34N 59°53' E 030°11'1 0.6
2016-Aug-20 02:33N 59°53' E 030°12'1 1.2
2016-Aug-20 01:33N 59°53' E 030°14'0 0.0
2016-Aug-20 00:33N 59°53' E 030°14'0 0.0
2016-Aug-19 23:32N 59°53' E 030°14'0 0.0
2016-Aug-19 22:33N 59°53' E 030°14'0 0.0
2016-Aug-19 21:32N 59°53' E 030°14'1 0.7
2016-Aug-19 20:31N 59°53' E 030°13'1 0.7
2016-Aug-19 19:33N 59°53' E 030°12'1 1.1
2016-Aug-19 18:32N 59°53' E 030°14'0 0.0
2016-Aug-19 17:33N 59°53' E 030°14'0 0.0
2016-Aug-19 16:32N 59°53' E 030°14'0 0.0
2016-Aug-19 15:33N 59°53' E 030°14'0 0.0
2016-Aug-19 14:31N 59°53' E 030°14'0 0.0
2016-Aug-19 13:33N 59°53' E 030°14'0 0.0
2016-Aug-19 12:33N 59°53' E 030°14'0 0.0
2016-Aug-19 11:33N 59°53' E 030°14'0 0.5
2016-Aug-19 10:32N 59°53' E 030°13'0 0.0
2016-Aug-19 09:33N 59°53' E 030°13'0 0.4
2016-Aug-19 08:32N 59°53' E 030°13'1 0.9
2016-Aug-19 07:33N 59°53' E 030°11'2 1.7
2016-Aug-19 06:33N 59°53' E 030°14'0 0.0
2016-Aug-19 05:33N 59°53' E 030°14'0 0.0
2016-Aug-19 04:33N 59°53' E 030°14'0 0.0
2016-Aug-19 03:33N 59°53' E 030°14'0 0.0
2016-Aug-19 02:32N 59°53' E 030°14'0 0.0
2016-Aug-19 01:33N 59°53' E 030°14'0 0.0
2016-Aug-19 00:32N 59°53' E 030°14'0 0.0
2016-Aug-18 23:33N 59°53' E 030°14'0 0.0
2016-Aug-18 22:33N 59°53' E 030°14'0 0.0
2016-Aug-18 21:33N 59°53' E 030°14'0 0.0
2016-Aug-18 20:33N 59°53' E 030°14'0 0.0
2016-Aug-18 19:32N 59°53' E 030°14'0 0.0
2016-Aug-18 18:33N 59°53' E 030°14'0 0.0
2016-Aug-18 17:32N 59°53' E 030°14'0 0.0
2016-Aug-18 16:33N 59°53' E 030°14'0 0.0
2016-Aug-18 15:33N 59°53' E 030°14'0 0.0
2016-Aug-18 14:32N 59°53' E 030°14'0 0.0
2016-Aug-18 13:30N 59°53' E 030°14'0 0.0
2016-Aug-18 12:33N 59°53' E 030°14'0 0.0
2016-Aug-18 11:33N 59°53' E 030°14'0 0.0
2016-Aug-18 10:33N 59°53' E 030°14'0 0.0
2016-Aug-18 09:26N 59°53' E 030°14'1 1.0
2016-Aug-18 08:31N 59°52' E 030°13'1 0.9
2016-Aug-18 07:30N 59°53' E 030°14'0 0.0
2016-Aug-18 06:33N 59°53' E 030°14'0 0.0
2016-Aug-18 05:33N 59°53' E 030°14'0 0.0
2016-Aug-18 04:32N 59°53' E 030°14'0 0.0
2016-Aug-18 03:33N 59°53' E 030°14'0 0.0
2016-Aug-18 02:27N 59°53' E 030°14'0 0.0
2016-Aug-18 01:33N 59°53' E 030°14'0 0.0
2016-Aug-18 00:33N 59°53' E 030°14'0 0.0
2016-Aug-17 23:24N 59°53' E 030°14'0 0.0
2016-Aug-17 22:32N 59°53' E 030°14'0 0.0
2016-Aug-17 21:33N 59°53' E 030°14'1 1.0
2016-Aug-17 20:34N 59°53' E 030°12'1 1.0
2016-Aug-17 19:32N 59°53' E 030°14'0 0.0
2016-Aug-17 18:33N 59°53' E 030°14'0 0.0
2016-Aug-17 17:31N 59°53' E 030°14'0 0.0
2016-Aug-17 16:32N 59°53' E 030°14'0 0.0
2016-Aug-17 15:32N 59°53' E 030°14'0 0.0
2016-Aug-17 14:33N 59°53' E 030°14'0 0.0
2016-Aug-17 13:25N 59°53' E 030°14'0 0.0
2016-Aug-17 12:29N 59°53' E 030°14'0 0.0
2016-Aug-17 11:33N 59°53' E 030°14'0 0.0
2016-Aug-17 10:30N 59°53' E 030°14'0 0.0
2016-Aug-17 09:33N 59°53' E 030°14'0 0.0
2016-Aug-17 08:33N 59°53' E 030°14'0 0.0
2016-Aug-17 07:33N 59°53' E 030°14'1 1.0
2016-Aug-17 06:32N 59°53' E 030°13'1 0.8
2016-Aug-17 05:33N 59°53' E 030°12'1 1.3
2016-Aug-17 04:33N 59°53' E 030°14'0 0.0
2016-Aug-17 03:33N 59°53' E 030°14'0 0.0
2016-Aug-17 02:33N 59°53' E 030°14'0 0.0
2016-Aug-17 01:33N 59°53' E 030°14'0 0.0
2016-Aug-17 00:34N 59°53' E 030°14'0 0.0
2016-Aug-16 23:33N 59°53' E 030°14'0 0.0
2016-Aug-16 22:33N 59°53' E 030°14'0 0.0
2016-Aug-16 21:33N 59°53' E 030°14'0 0.0
2016-Aug-16 20:25N 59°53' E 030°14'0 0.0
2016-Aug-16 19:33N 59°53' E 030°14'0 0.0
2016-Aug-16 18:33N 59°53' E 030°14'0 0.0
2016-Aug-16 17:33N 59°53' E 030°14'0 0.0
2016-Aug-16 16:33N 59°53' E 030°14'0 0.0
2016-Aug-16 15:33N 59°53' E 030°14'0 0.0
2016-Aug-16 14:31N 59°53' E 030°14'0 0.0
2016-Aug-16 13:33N 59°53' E 030°14'0 0.0
2016-Aug-16 12:33N 59°53' E 030°14'0 0.0
2016-Aug-16 11:33N 59°53' E 030°14'0 0.0
2016-Aug-16 10:33N 59°53' E 030°14'0 0.0
2016-Aug-16 09:33N 59°53' E 030°14'1 0.9
2016-Aug-16 08:33N 59°53' E 030°13'1 0.9
2016-Aug-16 07:33N 59°53' E 030°14'0 0.0
2016-Aug-16 04:33N 59°53' E 030°14'0 0.0
2016-Aug-16 03:33N 59°53' E 030°14'0 0.0
2016-Aug-16 02:33N 59°53' E 030°14'0 0.0
2016-Aug-16 01:33N 59°53' E 030°14'0 0.0
2016-Aug-16 00:33N 59°53' E 030°14'  
Track history (hours):
 
Tides and Currents Weather Stations Pressure Air Temp Water Temp Dewpoint Dewpoint Depression Visibility Wind Speed Wind Dir Waves Ship Positions

Grifon 5

Last reported at 2016-Aug-26 00:31 UTC. Time now 2016-Aug-26 01:30 UTC.
Position N 59°57' E 030°16'.

Length 25 m.

MMSI: 273311070.

Date/timePositionNaut miles runAvg speedWind from/ knotsBaromVisibWave heightAir tempDewpointWater temp
2016-Aug-26 00:31N 59°57' E 030°16'0 0.0
2016-Aug-25 23:13N 59°57' E 030°16'0 0.0
2016-Aug-25 22:33N 59°57' E 030°16'0 0.0
2016-Aug-25 20:09N 59°57' E 030°16'0 0.0
2016-Aug-25 19:33N 59°57' E 030°16'0 0.0
2016-Aug-25 18:33N 59°57' E 030°16'0 0.0
2016-Aug-25 04:33N 59°57' E 030°16'0 0.0
2016-Aug-25 03:33N 59°57' E 030°16'0 0.0
2016-Aug-25 02:33N 59°57' E 030°16'0 0.0
2016-Aug-25 01:32N 59°57' E 030°16'0 0.0
2016-Aug-25 00:34N 59°57' E 030°16'0 0.0
2016-Aug-24 23:34N 59°57' E 030°16'0 0.0
2016-Aug-24 22:33N 59°57' E 030°16'0 0.0
2016-Aug-24 21:33N 59°57' E 030°16'0 0.0
2016-Aug-24 20:33N 59°57' E 030°16'0 0.0
2016-Aug-24 19:34N 59°57' E 030°16'  
2016-Aug-22 10:24N 59°57' E 030°16'0 0.0
2016-Aug-22 09:33N 59°57' E 030°16'2 2.3
2016-Aug-22 08:34N 59°58' E 030°12'5 5.3
2016-Aug-22 07:33N 59°55' E 030°04'5 5.3
2016-Aug-22 06:34N 59°53' E 030°13'0 0.4
2016-Aug-22 05:33N 59°53' E 030°14'1 1.2
2016-Aug-22 04:32N 59°53' E 030°12'1 1.2
2016-Aug-22 03:33N 59°53' E 030°14'0 0.0
2016-Aug-22 02:29N 59°53' E 030°14'0 0.0
2016-Aug-22 01:33N 59°53' E 030°14'0 0.0
2016-Aug-22 00:33N 59°53' E 030°14'0 0.0
2016-Aug-21 23:33N 59°53' E 030°14'0 0.0
2016-Aug-21 22:34N 59°53' E 030°14'0 0.0
2016-Aug-21 21:33N 59°53' E 030°14'0 0.0
2016-Aug-21 20:33N 59°53' E 030°14'0 0.0
2016-Aug-21 19:33N 59°53' E 030°14'0 0.0
2016-Aug-21 18:31N 59°53' E 030°14'0 0.0
2016-Aug-21 17:32N 59°53' E 030°14'0 0.0
2016-Aug-21 16:32N 59°53' E 030°14'0 0.0
2016-Aug-21 15:33N 59°53' E 030°14'0 0.0
2016-Aug-21 14:33N 59°53' E 030°14'0 0.0
2016-Aug-21 13:33N 59°53' E 030°14'0 0.0
2016-Aug-21 12:32N 59°53' E 030°14'0 0.0
2016-Aug-21 11:33N 59°53' E 030°14'0 0.0
2016-Aug-21 10:33N 59°53' E 030°14'2 1.6
2016-Aug-21 09:32N 59°53' E 030°11'0 0.2
2016-Aug-21 08:33N 59°53' E 030°11'2 1.5
2016-Aug-21 07:32N 59°53' E 030°14'0 0.0
2016-Aug-21 06:32N 59°53' E 030°14'0 0.0
2016-Aug-21 05:33N 59°53' E 030°14'0 0.0
2016-Aug-21 04:33N 59°53' E 030°14'2 1.7
2016-Aug-21 03:34N 59°53' E 030°11'2 1.7
2016-Aug-21 02:32N 59°53' E 030°14'0 0.0
2016-Aug-21 01:33N 59°53' E 030°14'0 0.0
2016-Aug-21 00:33N 59°53' E 030°14'0 0.0
2016-Aug-20 23:33N 59°53' E 030°14'0 0.0
2016-Aug-20 22:33N 59°53' E 030°14'0 0.0
2016-Aug-20 21:31N 59°53' E 030°14'0 0.0
2016-Aug-20 20:33N 59°53' E 030°14'0 0.0
2016-Aug-20 19:31N 59°53' E 030°14'0 0.0
2016-Aug-20 18:30N 59°53' E 030°14'0 0.0
2016-Aug-20 17:33N 59°53' E 030°14'0 0.0
2016-Aug-20 16:31N 59°53' E 030°14'0 0.0
2016-Aug-20 15:32N 59°53' E 030°14'0 0.1
2016-Aug-20 14:33N 59°53' E 030°14'0 0.1
2016-Aug-20 13:32N 59°53' E 030°14'0 0.0
2016-Aug-20 12:33N 59°53' E 030°14'0 0.0
2016-Aug-20 11:33N 59°53' E 030°14'0 0.0
2016-Aug-20 10:31N 59°53' E 030°14'0 0.0
2016-Aug-20 09:33N 59°53' E 030°14'1 1.0
2016-Aug-20 08:33N 59°52' E 030°12'1 1.0
2016-Aug-20 07:33N 59°53' E 030°14'0 0.0
2016-Aug-20 06:33N 59°53' E 030°14'0 0.0
2016-Aug-20 05:33N 59°53' E 030°14'0 0.0
2016-Aug-20 04:32N 59°53' E 030°14'2 1.7
2016-Aug-20 03:34N 59°53' E 030°11'1 0.6
2016-Aug-20 02:33N 59°53' E 030°12'1 1.2
2016-Aug-20 01:33N 59°53' E 030°14'0 0.0
2016-Aug-20 00:33N 59°53' E 030°14'0 0.0
2016-Aug-19 23:32N 59°53' E 030°14'0 0.0
2016-Aug-19 22:33N 59°53' E 030°14'0 0.0
2016-Aug-19 21:32N 59°53' E 030°14'1 0.7
2016-Aug-19 20:31N 59°53' E 030°13'1 0.7
2016-Aug-19 19:33N 59°53' E 030°12'1 1.1
2016-Aug-19 18:32N 59°53' E 030°14'0 0.0
2016-Aug-19 17:33N 59°53' E 030°14'0 0.0
2016-Aug-19 16:32N 59°53' E 030°14'0 0.0
2016-Aug-19 15:33N 59°53' E 030°14'0 0.0
2016-Aug-19 14:31N 59°53' E 030°14'0 0.0
2016-Aug-19 13:33N 59°53' E 030°14'0 0.0
2016-Aug-19 12:33N 59°53' E 030°14'0 0.0
2016-Aug-19 11:33N 59°53' E 030°14'0 0.5
2016-Aug-19 10:32N 59°53' E 030°13'0 0.0
2016-Aug-19 09:33N 59°53' E 030°13'0 0.4
2016-Aug-19 08:32N 59°53' E 030°13'1 0.9
2016-Aug-19 07:33N 59°53' E 030°11'2 1.7
2016-Aug-19 06:33N 59°53' E 030°14'0 0.0
2016-Aug-19 05:33N 59°53' E 030°14'0 0.0
2016-Aug-19 04:33N 59°53' E 030°14'0 0.0
2016-Aug-19 03:33N 59°53' E 030°14'0 0.0
2016-Aug-19 02:32N 59°53' E 030°14'0 0.0
2016-Aug-19 01:33N 59°53' E 030°14'0 0.0
2016-Aug-19 00:32N 59°53' E 030°14'0 0.0
2016-Aug-18 23:33N 59°53' E 030°14'0 0.0
2016-Aug-18 22:33N 59°53' E 030°14'0 0.0
2016-Aug-18 21:33N 59°53' E 030°14'0 0.0
2016-Aug-18 20:33N 59°53' E 030°14'0 0.0
2016-Aug-18 19:32N 59°53' E 030°14'0 0.0
2016-Aug-18 18:33N 59°53' E 030°14'0 0.0
2016-Aug-18 17:32N 59°53' E 030°14'0 0.0
2016-Aug-18 16:33N 59°53' E 030°14'0 0.0
2016-Aug-18 15:33N 59°53' E 030°14'0 0.0
2016-Aug-18 14:32N 59°53' E 030°14'0 0.0
2016-Aug-18 13:30N 59°53' E 030°14'0 0.0
2016-Aug-18 12:33N 59°53' E 030°14'0 0.0
2016-Aug-18 11:33N 59°53' E 030°14'0 0.0
2016-Aug-18 10:33N 59°53' E 030°14'0 0.0
2016-Aug-18 09:26N 59°53' E 030°14'1 1.0
2016-Aug-18 08:31N 59°52' E 030°13'1 0.9
2016-Aug-18 07:30N 59°53' E 030°14'0 0.0
2016-Aug-18 06:33N 59°53' E 030°14'0 0.0
2016-Aug-18 05:33N 59°53' E 030°14'0 0.0
2016-Aug-18 04:32N 59°53' E 030°14'0 0.0
2016-Aug-18 03:33N 59°53' E 030°14'0 0.0
2016-Aug-18 02:27N 59°53' E 030°14'0 0.0
2016-Aug-18 01:33N 59°53' E 030°14'0 0.0
2016-Aug-18 00:33N 59°53' E 030°14'0 0.0
2016-Aug-17 23:24N 59°53' E 030°14'0 0.0
2016-Aug-17 22:32N 59°53' E 030°14'0 0.0
2016-Aug-17 21:33N 59°53' E 030°14'1 1.0
2016-Aug-17 20:34N 59°53' E 030°12'1 1.0
2016-Aug-17 19:32N 59°53' E 030°14'0 0.0
2016-Aug-17 18:33N 59°53' E 030°14'0 0.0
2016-Aug-17 17:31N 59°53' E 030°14'0 0.0
2016-Aug-17 16:32N 59°53' E 030°14'0 0.0
2016-Aug-17 15:32N 59°53' E 030°14'0 0.0
2016-Aug-17 14:33N 59°53' E 030°14'0 0.0
2016-Aug-17 13:25N 59°53' E 030°14'0 0.0
2016-Aug-17 12:29N 59°53' E 030°14'0 0.0
2016-Aug-17 11:33N 59°53' E 030°14'0 0.0
2016-Aug-17 10:30N 59°53' E 030°14'0 0.0
2016-Aug-17 09:33N 59°53' E 030°14'0 0.0
2016-Aug-17 08:33N 59°53' E 030°14'0 0.0
2016-Aug-17 07:33N 59°53' E 030°14'1 1.0
2016-Aug-17 06:32N 59°53' E 030°13'1 0.8
2016-Aug-17 05:33N 59°53' E 030°12'1 1.3
2016-Aug-17 04:33N 59°53' E 030°14'0 0.0
2016-Aug-17 03:33N 59°53' E 030°14'0 0.0
2016-Aug-17 02:33N 59°53' E 030°14'0 0.0
2016-Aug-17 01:33N 59°53' E 030°14'0 0.0
2016-Aug-17 00:34N 59°53' E 030°14'0 0.0
2016-Aug-16 23:33N 59°53' E 030°14'0 0.0
2016-Aug-16 22:33N 59°53' E 030°14'0 0.0
2016-Aug-16 21:33N 59°53' E 030°14'0 0.0
2016-Aug-16 20:25N 59°53' E 030°14'0 0.0
2016-Aug-16 19:33N 59°53' E 030°14'0 0.0
2016-Aug-16 18:33N 59°53' E 030°14'0 0.0
2016-Aug-16 17:33N 59°53' E 030°14'0 0.0
2016-Aug-16 16:33N 59°53' E 030°14'0 0.0
2016-Aug-16 15:33N 59°53' E 030°14'0 0.0
2016-Aug-16 14:31N 59°53' E 030°14'0 0.0
2016-Aug-16 13:33N 59°53' E 030°14'0 0.0
2016-Aug-16 12:33N 59°53' E 030°14'0 0.0
2016-Aug-16 11:33N 59°53' E 030°14'0 0.0
2016-Aug-16 10:33N 59°53' E 030°14'0 0.0
2016-Aug-16 09:33N 59°53' E 030°14'1 0.9
2016-Aug-16 08:33N 59°53' E 030°13'1 0.9
2016-Aug-16 07:33N 59°53' E 030°14'0 0.0
2016-Aug-16 04:33N 59°53' E 030°14'0 0.0
2016-Aug-16 03:33N 59°53' E 030°14'0 0.0
2016-Aug-16 02:33N 59°53' E 030°14'0 0.0
2016-Aug-16 01:33N 59°53' E 030°14'0 0.0
2016-Aug-16 00:33N 59°53' E 030°14'  

Dump ship's entire track history